Time;durP1;ratioP1;P1;durP2;ratioP2;P2;SDS_P1;SDS_P2;PMS_P1;PMS_P2;Temp;Humidity;BMP_temperature;BMP_pressure;BME280_temperature;BME280_humidity;BME280_pressure;Samples;Min_cycle;Max_cycle;Signal;HPM_P1;HPM_P2
2023/07/04 00:02:01;;;;;;;7.00;5.33;;;;;;;;;;6177931;28;20211;-70
2023/07/04 00:05:02;;;;;;;6.87;5.40;;;;;;;;;;6176230;28;20204;-70
2023/07/04 00:08:04;;;;;;;8.73;5.83;;;;;;;;;;6169075;28;20188;-69
2023/07/04 00:11:06;;;;;;;7.83;5.00;;;;;;;;;;6198317;28;20229;-69
2023/07/04 00:14:07;;;;;;;10.20;5.40;;;;;;;;;;6179056;28;20225;-69
2023/07/04 00:17:08;;;;;;;9.20;5.93;;;;;;;;;;6166682;28;20228;-70
2023/07/04 00:20:10;;;;;;;7.80;5.93;;;;;;;;;;6184596;28;20195;-70
2023/07/04 00:23:11;;;;;;;8.40;5.20;;;;;;;;;;6179985;28;20250;-70
2023/07/04 00:26:13;;;;;;;5.90;5.30;;;;;;;;;;6173557;28;20237;-70
2023/07/04 00:29:15;;;;;;;7.03;5.20;;;;;;;;;;6177458;28;20193;-70
2023/07/04 00:32:16;;;;;;;5.70;4.97;;;;;;;;;;6189678;28;20243;-70
2023/07/04 00:35:17;;;;;;;5.63;4.80;;;;;;;;;;6173007;28;20223;-70
2023/07/04 00:38:19;;;;;;;5.03;4.53;;;;;;;;;;6205418;28;20235;-70
2023/07/04 00:41:22;;;;;;;6.57;5.40;;;;;;;;;;6189990;28;20199;-70
2023/07/04 00:44:30;;;;;;;8.60;5.17;;;;;;;;;;6187059;28;20205;-70
2023/07/04 00:47:43;;;;;;;5.03;4.53;;;;;;;;;;6174603;28;20227;-70
2023/07/04 00:50:46;;;;;;;7.07;5.10;;;;;;;;;;6172535;28;20292;-70
2023/07/04 00:53:49;;;;;;;6.13;5.53;;;;;;;;;;6196660;28;20188;-69
2023/07/04 00:56:52;;;;;;;5.63;4.70;;;;;;;;;;6195375;28;20203;-69
2023/07/04 00:59:58;;;;;;;9.90;4.97;;;;;;;;;;6191813;28;20185;-69
2023/07/04 01:03:05;;;;;;;6.83;5.10;;;;;;;;;;6182476;28;20186;-69
2023/07/04 01:06:15;;;;;;;6.33;4.93;;;;;;;;;;6175863;28;20295;-69
2023/07/04 01:09:17;;;;;;;8.00;4.90;;;;;;;;;;6188800;28;20200;-70
2023/07/04 01:12:18;;;;;;;8.93;5.00;;;;;;;;;;6182989;28;20199;-70
2023/07/04 01:15:23;;;;;;;10.20;5.70;;;;;;;;;;6186067;28;20244;-70
2023/07/04 01:18:24;;;;;;;5.87;5.27;;;;;;;;;;6191494;28;20262;-70
2023/07/04 01:21:27;;;;;;;5.37;4.87;;;;;;;;;;6172148;28;20220;-70
2023/07/04 01:24:36;;;;;;;5.57;4.83;;;;;;;;;;6194531;28;20255;-70
2023/07/04 01:27:37;;;;;;;5.30;4.77;;;;;;;;;;6185533;28;20208;-70
2023/07/04 01:30:40;;;;;;;8.07;5.17;;;;;;;;;;6179494;28;20203;-70
2023/07/04 01:33:42;;;;;;;7.70;5.40;;;;;;;;;;6206155;28;20191;-70
2023/07/04 01:36:44;;;;;;;5.40;4.40;;;;;;;;;;6183161;28;20216;-70
2023/07/04 01:39:45;;;;;;;6.90;4.87;;;;;;;;;;6204796;28;20192;-70
2023/07/04 01:42:49;;;;;;;5.60;5.00;;;;;;;;;;6175579;28;20192;-70
2023/07/04 01:45:50;;;;;;;6.47;5.00;;;;;;;;;;6184567;28;20196;-70
2023/07/04 01:48:51;;;;;;;6.87;4.50;;;;;;;;;;6176688;28;20195;-70
2023/07/04 01:51:52;;;;;;;7.07;4.83;;;;;;;;;;6194132;28;20246;-70
2023/07/04 01:54:54;;;;;;;7.40;5.40;;;;;;;;;;6190663;28;20195;-70
2023/07/04 01:57:55;;;;;;;7.70;5.33;;;;;;;;;;6192871;28;20212;-70
2023/07/04 02:00:56;;;;;;;11.50;5.70;;;;;;;;;;6176731;28;20665;-70
2023/07/04 02:03:57;;;;;;;10.37;5.67;;;;;;;;;;6185505;28;20288;-70
2023/07/04 02:06:58;;;;;;;7.00;4.67;;;;;;;;;;6181414;28;20235;-69
2023/07/04 02:09:59;;;;;;;5.77;5.10;;;;;;;;;;6169898;28;20195;-69
2023/07/04 02:13:00;;;;;;;6.03;5.03;;;;;;;;;;6180061;28;20193;-69
2023/07/04 02:16:01;;;;;;;7.27;4.73;;;;;;;;;;6179446;28;20236;-69
2023/07/04 02:19:02;;;;;;;4.70;4.20;;;;;;;;;;6182655;28;20188;-69
2023/07/04 02:22:03;;;;;;;5.07;4.67;;;;;;;;;;6177990;28;20203;-70
2023/07/04 02:25:05;;;;;;;5.33;4.67;;;;;;;;;;6181833;28;20195;-70
2023/07/04 02:28:06;;;;;;;6.00;5.40;;;;;;;;;;6179629;28;20193;-70
2023/07/04 02:31:07;;;;;;;4.93;4.47;;;;;;;;;;6178899;28;20203;-69
2023/07/04 02:34:08;;;;;;;5.90;5.07;;;;;;;;;;6178112;28;20207;-69
2023/07/04 02:37:10;;;;;;;5.40;4.90;;;;;;;;;;6165582;28;20271;-70
2023/07/04 02:40:11;;;;;;;5.57;5.07;;;;;;;;;;6175950;28;20263;-70
2023/07/04 02:43:12;;;;;;;5.90;5.00;;;;;;;;;;6181907;28;20228;-70
2023/07/04 02:46:14;;;;;;;5.70;4.70;;;;;;;;;;6196760;28;20192;-70
2023/07/04 02:49:15;;;;;;;7.30;5.30;;;;;;;;;;6169597;28;20208;-70
2023/07/04 02:52:16;;;;;;;5.87;4.73;;;;;;;;;;6190325;28;20199;-70
2023/07/04 02:55:18;;;;;;;4.83;4.30;;;;;;;;;;6181508;28;20208;-70
2023/07/04 02:58:19;;;;;;;5.57;4.90;;;;;;;;;;6176187;28;20198;-70
2023/07/04 03:01:20;;;;;;;7.20;5.00;;;;;;;;;;6186360;28;20196;-69
2023/07/04 03:04:21;;;;;;;8.30;5.30;;;;;;;;;;6186328;28;20202;-69
2023/07/04 03:07:22;;;;;;;8.47;5.20;;;;;;;;;;6181007;28;20196;-69
2023/07/04 03:10:23;;;;;;;6.17;4.67;;;;;;;;;;6174931;28;20291;-70
2023/07/04 03:13:24;;;;;;;6.30;4.30;;;;;;;;;;6164849;28;20226;-70
2023/07/04 03:16:25;;;;;;;6.97;5.90;;;;;;;;;;6183714;28;20239;-69
2023/07/04 03:19:26;;;;;;;7.70;5.00;;;;;;;;;;6178561;28;20207;-71
2023/07/04 03:22:27;;;;;;;7.27;5.17;;;;;;;;;;6174903;28;20281;-69
2023/07/04 03:25:29;;;;;;;6.30;5.50;;;;;;;;;;6181989;28;20319;-70
2023/07/04 03:28:30;;;;;;;8.60;5.03;;;;;;;;;;6179574;28;20200;-70
2023/07/04 03:31:31;;;;;;;8.40;5.10;;;;;;;;;;6201863;28;20196;-70
2023/07/04 03:34:32;;;;;;;6.23;5.57;;;;;;;;;;6177366;28;20243;-70
2023/07/04 03:37:34;;;;;;;7.90;5.80;;;;;;;;;;6171263;28;20255;-70
2023/07/04 03:40:35;;;;;;;8.17;5.30;;;;;;;;;;6175064;28;20193;-70
2023/07/04 03:43:36;;;;;;;6.13;4.93;;;;;;;;;;6174431;28;20198;-71
2023/07/04 03:46:37;;;;;;;6.20;5.70;;;;;;;;;;6171381;28;20199;-71
2023/07/04 03:49:38;;;;;;;6.87;5.53;;;;;;;;;;6177670;28;20206;-71
2023/07/04 03:52:39;;;;;;;5.47;4.97;;;;;;;;;;6164197;28;20195;-71
2023/07/04 03:55:41;;;;;;;5.50;5.00;;;;;;;;;;6199260;28;20212;-71
2023/07/04 03:58:42;;;;;;;8.27;5.50;;;;;;;;;;6180628;28;20221;-71
2023/07/04 04:01:45;;;;;;;8.03;5.53;;;;;;;;;;6175172;28;20191;-71
2023/07/04 04:04:46;;;;;;;6.13;5.50;;;;;;;;;;6180812;28;20201;-71
2023/07/04 04:07:50;;;;;;;7.10;5.63;;;;;;;;;;6192039;28;20256;-73
2023/07/04 04:10:51;;;;;;;5.47;4.93;;;;;;;;;;6192566;28;20326;-73
2023/07/04 04:13:52;;;;;;;7.73;5.33;;;;;;;;;;6162492;28;20193;-73
2023/07/04 04:16:53;;;;;;;5.67;5.17;;;;;;;;;;6175745;28;20314;-72
2023/07/04 04:19:54;;;;;;;5.50;4.90;;;;;;;;;;6179704;28;20264;-71
2023/07/04 04:22:55;;;;;;;8.67;5.43;;;;;;;;;;6185114;28;20184;-70
2023/07/04 04:25:57;;;;;;;5.93;4.83;;;;;;;;;;6182353;28;20196;-71
2023/07/04 04:28:59;;;;;;;7.80;4.93;;;;;;;;;;6193734;28;20229;-70
2023/07/04 04:32:00;;;;;;;7.83;5.47;;;;;;;;;;6191447;28;20242;-70
2023/07/04 04:35:01;;;;;;;8.50;5.40;;;;;;;;;;6172812;28;20243;-70
2023/07/04 04:38:02;;;;;;;6.27;5.50;;;;;;;;;;6181431;28;20223;-70
2023/07/04 04:41:04;;;;;;;6.37;5.73;;;;;;;;;;6188904;28;20188;-70
2023/07/04 04:44:05;;;;;;;8.33;5.40;;;;;;;;;;6193674;28;20200;-71
2023/07/04 04:47:07;;;;;;;5.93;5.10;;;;;;;;;;6196293;28;20193;-70
2023/07/04 04:50:08;;;;;;;5.37;4.87;;;;;;;;;;6192370;28;20250;-70
2023/07/04 04:53:14;;;;;;;8.17;5.43;;;;;;;;;;6164642;28;20204;-71
2023/07/04 04:56:15;;;;;;;6.87;5.33;;;;;;;;;;6195707;28;20244;-71
2023/07/04 04:59:16;;;;;;;6.10;5.47;;;;;;;;;;6193940;28;20189;-71
2023/07/04 05:02:18;;;;;;;7.23;5.33;;;;;;;;;;6176264;28;20202;-72
2023/07/04 05:05:19;;;;;;;9.07;5.57;;;;;;;;;;6199086;28;20195;-72
2023/07/04 05:08:20;;;;;;;7.97;5.67;;;;;;;;;;6190366;28;20196;-72
2023/07/04 05:11:21;;;;;;;7.97;5.37;;;;;;;;;;6168625;28;20194;-72
2023/07/04 05:14:22;;;;;;;6.00;5.40;;;;;;;;;;6193538;28;20220;-71
2023/07/04 05:17:24;;;;;;;6.23;5.63;;;;;;;;;;6179604;28;20218;-71
2023/07/04 05:20:25;;;;;;;8.87;5.57;;;;;;;;;;6190374;28;20203;-71
2023/07/04 05:23:26;;;;;;;7.93;6.17;;;;;;;;;;6179978;28;20192;-71
2023/07/04 05:26:28;;;;;;;6.50;5.80;;;;;;;;;;6167692;28;20188;-72
2023/07/04 05:29:29;;;;;;;8.43;5.43;;;;;;;;;;6186563;28;20188;-72
2023/07/04 05:32:30;;;;;;;6.50;5.17;;;;;;;;;;6170391;28;20191;-71
2023/07/04 05:35:31;;;;;;;6.87;6.27;;;;;;;;;;6175504;28;20207;-71
2023/07/04 05:38:33;;;;;;;6.93;5.60;;;;;;;;;;6175203;28;20283;-72
2023/07/04 05:41:35;;;;;;;6.17;5.33;;;;;;;;;;6177399;28;20200;-71
2023/07/04 05:44:36;;;;;;;5.63;5.03;;;;;;;;;;6184414;28;20184;-71
2023/07/04 05:47:37;;;;;;;7.03;6.33;;;;;;;;;;6186718;28;20199;-71
2023/07/04 05:50:38;;;;;;;8.60;6.37;;;;;;;;;;6166514;28;20270;-71
2023/07/04 05:53:43;;;;;;;6.97;6.27;;;;;;;;;;6160984;28;20215;-71
2023/07/04 05:56:44;;;;;;;6.97;6.23;;;;;;;;;;6177190;28;20209;-71
2023/07/04 05:59:45;;;;;;;7.43;5.97;;;;;;;;;;6164899;28;20218;-71
2023/07/04 06:02:48;;;;;;;6.70;6.00;;;;;;;;;;6172752;28;20197;-71
2023/07/04 06:05:49;;;;;;;7.57;6.77;;;;;;;;;;6181980;28;20239;-71
2023/07/04 06:08:50;;;;;;;6.90;6.03;;;;;;;;;;6162429;28;20200;-71
2023/07/04 06:11:51;;;;;;;7.20;6.33;;;;;;;;;;6172458;28;20279;-71
2023/07/04 06:14:52;;;;;;;7.33;6.13;;;;;;;;;;6170895;28;20236;-71
2023/07/04 06:17:53;;;;;;;7.47;6.27;;;;;;;;;;6173414;28;20230;-71
2023/07/04 06:21:04;;;;;;;9.27;6.50;;;;;;;;;;6179331;28;20191;-71
2023/07/04 06:24:06;;;;;;;7.13;6.37;;;;;;;;;;6186074;28;20248;-71
2023/07/04 06:27:07;;;;;;;8.07;7.23;;;;;;;;;;6163438;28;20212;-71
2023/07/04 06:30:10;;;;;;;6.63;5.93;;;;;;;;;;6163455;28;20208;-72
2023/07/04 06:33:11;;;;;;;7.37;6.57;;;;;;;;;;6187630;28;20188;-72
2023/07/04 06:36:14;;;;;;;7.00;5.80;;;;;;;;;;6173496;28;20314;-72
2023/07/04 06:39:15;;;;;;;7.90;7.10;;;;;;;;;;6183228;28;20225;-72
2023/07/04 06:42:16;;;;;;;9.40;7.50;;;;;;;;;;6187690;28;20239;-72
2023/07/04 06:45:17;;;;;;;7.07;6.20;;;;;;;;;;6163206;28;20192;-72
2023/07/04 06:48:21;;;;;;;7.57;6.60;;;;;;;;;;6182191;28;20195;-72
2023/07/04 06:51:25;;;;;;;7.93;7.20;;;;;;;;;;6182428;28;20184;-72
2023/07/04 06:54:26;;;;;;;17.90;9.00;;;;;;;;;;6166721;28;20204;-72
2023/07/04 06:57:27;;;;;;;13.63;8.00;;;;;;;;;;6183146;28;20251;-72
2023/07/04 07:00:28;;;;;;;10.80;8.33;;;;;;;;;;6160652;28;20194;-72
2023/07/04 07:03:32;;;;;;;10.43;7.90;;;;;;;;;;6170582;28;20206;-72
2023/07/04 07:06:33;;;;;;;10.27;7.53;;;;;;;;;;6183011;28;20215;-72
2023/07/04 07:09:35;;;;;;;8.97;8.07;;;;;;;;;;6168679;28;20200;-72
2023/07/04 07:12:37;;;;;;;8.40;7.50;;;;;;;;;;6178528;28;20203;-72
2023/07/04 07:15:38;;;;;;;7.83;7.07;;;;;;;;;;6173190;28;20246;-72
2023/07/04 07:18:39;;;;;;;8.10;7.20;;;;;;;;;;6175027;28;20192;-72
2023/07/04 07:21:40;;;;;;;7.60;6.90;;;;;;;;;;6169344;28;20292;-72
2023/07/04 07:24:41;;;;;;;7.63;6.83;;;;;;;;;;6165911;28;20192;-72
2023/07/04 07:27:43;;;;;;;8.60;7.70;;;;;;;;;;6167659;28;20213;-72
2023/07/04 07:30:44;;;;;;;7.67;6.50;;;;;;;;;;6175132;28;20193;-72
2023/07/04 07:33:45;;;;;;;7.83;7.03;;;;;;;;;;6175794;28;20196;-72
2023/07/04 07:36:47;;;;;;;7.63;6.83;;;;;;;;;;6186246;28;20208;-71
2023/07/04 07:39:49;;;;;;;8.10;7.07;;;;;;;;;;6162569;28;20195;-71
2023/07/04 07:42:50;;;;;;;9.07;7.10;;;;;;;;;;6175561;28;20227;-71
2023/07/04 07:45:51;;;;;;;6.97;6.27;;;;;;;;;;6175324;28;20198;-71
2023/07/04 07:48:52;;;;;;;7.53;6.27;;;;;;;;;;6168467;28;20206;-71
2023/07/04 07:51:53;;;;;;;7.87;6.47;;;;;;;;;;6187892;28;20219;-71
2023/07/04 07:54:54;;;;;;;7.23;5.90;;;;;;;;;;6176804;28;20191;-72
2023/07/04 07:57:55;;;;;;;6.13;5.53;;;;;;;;;;6196295;28;20207;-72
2023/07/04 08:00:56;;;;;;;7.57;5.70;;;;;;;;;;6169052;28;20219;-72
2023/07/04 08:03:58;;;;;;;6.27;5.63;;;;;;;;;;6162277;28;20239;-72
2023/07/04 08:06:59;;;;;;;6.13;5.57;;;;;;;;;;6161196;28;20199;-72
2023/07/04 08:10:00;;;;;;;6.97;6.27;;;;;;;;;;6172307;28;20203;-72
2023/07/04 08:13:01;;;;;;;5.53;5.03;;;;;;;;;;6173269;28;20312;-72
2023/07/04 08:16:02;;;;;;;7.07;6.13;;;;;;;;;;6173814;28;20239;-72
2023/07/04 08:19:03;;;;;;;7.37;6.37;;;;;;;;;;6171898;28;20207;-72
2023/07/04 08:22:04;;;;;;;6.90;5.70;;;;;;;;;;6189113;28;20218;-72
2023/07/04 08:25:05;;;;;;;7.80;5.60;;;;;;;;;;6181557;28;20199;-72
2023/07/04 08:28:06;;;;;;;6.17;5.30;;;;;;;;;;6181482;28;20191;-72
2023/07/04 08:31:09;;;;;;;6.60;5.57;;;;;;;;;;6187907;28;20195;-72
2023/07/04 08:34:11;;;;;;;5.53;5.03;;;;;;;;;;6187944;28;20219;-73
2023/07/04 08:37:12;;;;;;;6.93;5.83;;;;;;;;;;6184034;28;20274;-72
2023/07/04 08:40:14;;;;;;;5.97;5.37;;;;;;;;;;6181179;28;20195;-72
2023/07/04 08:43:16;;;;;;;18.50;16.73;;;;;;;;;;6188489;28;20184;-73
2023/07/04 08:46:19;;;;;;;20.10;18.23;;;;;;;;;;6199570;28;20196;-72
2023/07/04 08:49:23;;;;;;;10.77;8.83;;;;;;;;;;6192773;28;20208;-73
2023/07/04 08:52:29;;;;;;;6.97;6.27;;;;;;;;;;6182113;28;20195;-73
2023/07/04 08:55:32;;;;;;;7.83;6.50;;;;;;;;;;6180354;28;20200;-72
2023/07/04 08:58:41;;;;;;;6.20;5.47;;;;;;;;;;6190864;28;20202;-72
2023/07/04 09:01:42;;;;;;;7.80;7.00;;;;;;;;;;6187383;28;20235;-73
2023/07/04 09:04:47;;;;;;;7.80;6.43;;;;;;;;;;6175813;28;20193;-73
2023/07/04 09:08:12;;;;;;;10.00;6.87;;;;;;;;;;6189182;28;20227;-73
2023/07/04 09:11:13;;;;;;;6.50;5.90;;;;;;;;;;6156106;28;20212;-73
2023/07/04 09:14:35;;;;;;;9.50;6.70;;;;;;;;;;6178768;28;20234;-72
2023/07/04 09:17:39;;;;;;;7.50;6.70;;;;;;;;;;6177786;28;20282;-72
2023/07/04 09:20:46;;;;;;;9.97;6.70;;;;;;;;;;6182116;28;20195;-72
2023/07/04 09:23:48;;;;;;;7.30;6.60;;;;;;;;;;6181380;28;20189;-72
2023/07/04 09:26:56;;;;;;;7.60;6.50;;;;;;;;;;6179564;28;20202;-72
2023/07/04 09:29:57;;;;;;;7.03;6.33;;;;;;;;;;6194056;28;20214;-72
2023/07/04 09:32:58;;;;;;;8.37;7.00;;;;;;;;;;6164119;28;20196;-72
2023/07/04 09:36:00;;;;;;;6.80;6.10;;;;;;;;;;6180272;28;20247;-72
2023/07/04 09:39:04;;;;;;;8.93;6.60;;;;;;;;;;6181392;28;20188;-72
2023/07/04 09:42:07;;;;;;;9.23;7.17;;;;;;;;;;6179165;28;20199;-72
2023/07/04 09:45:09;;;;;;;8.60;6.63;;;;;;;;;;6184113;28;20205;-73
2023/07/04 09:48:10;;;;;;;10.90;7.20;;;;;;;;;;6184599;28;20192;-73
2023/07/04 09:51:21;;;;;;;9.37;6.93;;;;;;;;;;6162593;28;20200;-72
2023/07/04 09:54:22;;;;;;;8.20;6.47;;;;;;;;;;6177658;28;20196;-73
2023/07/04 09:57:23;;;;;;;7.73;6.53;;;;;;;;;;6171337;28;20253;-73
2023/07/04 10:00:25;;;;;;;7.30;6.30;;;;;;;;;;6178304;28;20188;-72
2023/07/04 10:03:26;;;;;;;10.20;6.23;;;;;;;;;;6181626;28;20196;-71
2023/07/04 10:06:33;;;;;;;7.37;6.37;;;;;;;;;;6169942;28;20203;-70
2023/07/04 10:09:34;;;;;;;9.13;6.53;;;;;;;;;;6173083;28;20197;-70
2023/07/04 10:12:43;;;;;;;9.20;6.13;;;;;;;;;;6166991;28;20187;-70
2023/07/04 10:15:45;;;;;;;7.50;6.37;;;;;;;;;;6182225;28;20236;-70
2023/07/04 10:18:46;;;;;;;7.07;6.20;;;;;;;;;;6176984;28;20244;-70
2023/07/04 10:21:51;;;;;;;8.57;6.33;;;;;;;;;;6159061;28;20221;-70
2023/07/04 10:24:53;;;;;;;7.50;6.67;;;;;;;;;;6179201;28;20192;-67
2023/07/04 10:27:56;;;;;;;10.83;6.77;;;;;;;;;;6193829;28;20247;-69
2023/07/04 10:30:59;;;;;;;6.77;6.07;;;;;;;;;;6178708;28;20196;-70
2023/07/04 10:34:03;;;;;;;8.17;6.80;;;;;;;;;;6198269;28;20196;-70
2023/07/04 10:37:04;;;;;;;7.87;6.47;;;;;;;;;;6181325;28;20208;-70
2023/07/04 10:40:08;;;;;;;8.63;6.80;;;;;;;;;;6175990;28;20219;-69
2023/07/04 10:43:13;;;;;;;9.23;5.97;;;;;;;;;;6176055;28;20204;-69
2023/07/04 10:46:16;;;;;;;7.40;5.83;;;;;;;;;;6202266;28;20279;-69
2023/07/04 10:49:19;;;;;;;11.47;6.83;;;;;;;;;;6186734;28;20184;-69
2023/07/04 10:52:22;;;;;;;6.70;6.03;;;;;;;;;;6182803;28;20216;-69
2023/07/04 10:55:26;;;;;;;7.50;6.70;;;;;;;;;;6188879;28;20219;-69
2023/07/04 10:58:33;;;;;;;6.87;6.13;;;;;;;;;;6195815;28;20246;-69
2023/07/04 11:01:37;;;;;;;8.77;6.40;;;;;;;;;;6194406;28;20196;-69
2023/07/04 11:04:39;;;;;;;7.30;6.20;;;;;;;;;;6185070;28;20184;-69
2023/07/04 11:07:42;;;;;;;6.80;6.10;;;;;;;;;;6179787;28;20200;-68
2023/07/04 11:10:44;;;;;;;7.37;6.67;;;;;;;;;;6188737;28;20196;-69
2023/07/04 11:13:48;;;;;;;6.47;5.73;;;;;;;;;;6191943;28;20220;-69
2023/07/04 11:16:54;;;;;;;7.03;6.43;;;;;;;;;;6180055;28;20228;-69
2023/07/04 11:19:57;;;;;;;7.53;6.17;;;;;;;;;;6187007;28;20184;-69
2023/07/04 11:23:00;;;;;;;7.13;5.73;;;;;;;;;;6197665;28;20188;-69
2023/07/04 11:26:07;;;;;;;5.87;5.00;;;;;;;;;;6198781;28;20198;-69
2023/07/04 11:29:15;;;;;;;5.70;3.97;;;;;;;;;;6190063;28;20197;-69
2023/07/04 11:32:20;;;;;;;4.10;3.70;;;;;;;;;;6188881;28;20238;-69
2023/07/04 11:35:22;;;;;;;4.97;4.07;;;;;;;;;;6190240;28;20196;-69
2023/07/04 11:38:23;;;;;;;3.40;3.10;;;;;;;;;;6178261;28;20244;-69
2023/07/04 11:41:29;;;;;;;5.07;3.83;;;;;;;;;;6181261;28;20195;-69
2023/07/04 11:44:31;;;;;;;4.93;4.13;;;;;;;;;;6182514;28;20191;-69
2023/07/04 11:47:37;;;;;;;5.67;4.30;;;;;;;;;;6198845;28;20196;-68
2023/07/04 11:50:42;;;;;;;4.93;4.27;;;;;;;;;;6197716;28;20207;-68
2023/07/04 11:53:45;;;;;;;3.90;3.53;;;;;;;;;;6188573;28;20188;-68
2023/07/04 11:56:46;;;;;;;4.73;4.20;;;;;;;;;;6184429;28;20287;-68
2023/07/04 11:59:47;;;;;;;4.60;4.20;;;;;;;;;;6173786;28;20206;-69
2023/07/04 12:02:49;;;;;;;4.67;4.20;;;;;;;;;;6198328;28;20198;-70
2023/07/04 12:05:53;;;;;;;4.60;4.20;;;;;;;;;;6198662;28;20196;-69
2023/07/04 12:08:54;;;;;;;5.00;4.03;;;;;;;;;;6199176;28;20196;-70
2023/07/04 12:11:57;;;;;;;5.57;3.67;;;;;;;;;;6176633;28;20219;-71
2023/07/04 12:15:08;;;;;;;5.97;5.30;;;;;;;;;;6180625;28;20245;-73
2023/07/04 12:18:15;;;;;;;6.07;4.37;;;;;;;;;;6190501;28;20223;-72
2023/07/04 12:21:18;;;;;;;5.73;4.00;;;;;;;;;;6192821;28;20342;-71
2023/07/04 12:24:20;;;;;;;4.50;3.63;;;;;;;;;;6197144;28;20192;-71
2023/07/04 12:27:27;;;;;;;5.60;3.53;;;;;;;;;;6191956;28;20192;-71
2023/07/04 12:30:28;;;;;;;4.23;3.40;;;;;;;;;;6185820;28;20284;-71
2023/07/04 12:33:30;;;;;;;5.67;3.07;;;;;;;;;;6184510;28;20205;-71
2023/07/04 12:36:37;;;;;;;4.20;3.10;;;;;;;;;;6200323;28;20219;-71
2023/07/04 12:39:42;;;;;;;3.57;3.27;;;;;;;;;;6177405;28;20200;-71
2023/07/04 12:42:44;;;;;;;4.03;3.50;;;;;;;;;;6177345;28;20204;-70
2023/07/04 12:45:45;;;;;;;6.57;5.97;;;;;;;;;;6207197;28;20191;-71
2023/07/04 12:48:46;;;;;;;8.00;5.00;;;;;;;;;;6186895;28;20189;-70
2023/07/04 12:51:48;;;;;;;4.40;4.00;;;;;;;;;;6191580;28;20195;-70
2023/07/04 12:54:49;;;;;;;6.07;4.03;;;;;;;;;;6194922;28;20272;-71
2023/07/04 12:57:50;;;;;;;3.53;3.23;;;;;;;;;;6183519;28;20287;-70
2023/07/04 13:00:57;;;;;;;4.80;3.73;;;;;;;;;;6192186;28;20187;-70
2023/07/04 13:03:59;;;;;;;7.07;3.93;;;;;;;;;;6193746;28;20200;-70
2023/07/04 13:07:00;;;;;;;3.70;3.33;;;;;;;;;;6178143;28;20192;-67
2023/07/04 13:10:03;;;;;;;5.00;3.80;;;;;;;;;;6174741;28;20195;-70
2023/07/04 13:13:05;;;;;;;5.80;3.70;;;;;;;;;;6186924;28;20200;-70
2023/07/04 13:16:14;;;;;;;3.87;3.47;;;;;;;;;;6183421;28;20244;-70
2023/07/04 13:19:18;;;;;;;4.27;3.87;;;;;;;;;;6191499;28;20184;-67
2023/07/04 13:22:19;;;;;;;4.50;4.03;;;;;;;;;;6186134;28;20185;-67
2023/07/04 13:25:39;;;;;;;5.67;4.47;;;;;;;;;;6177911;28;20283;-67
2023/07/04 13:28:45;;;;;;;4.67;3.90;;;;;;;;;;6191979;28;20204;-68
2023/07/04 13:31:47;;;;;;;7.03;4.77;;;;;;;;;;6189639;28;20192;-68
2023/07/04 13:34:48;;;;;;;6.43;3.93;;;;;;;;;;6189492;28;20195;-67
2023/07/04 13:37:49;;;;;;;5.17;4.13;;;;;;;;;;6189628;28;20211;-67
2023/07/04 13:40:50;;;;;;;6.50;4.13;;;;;;;;;;6190982;28;20204;-67
2023/07/04 13:43:51;;;;;;;5.47;3.77;;;;;;;;;;6184704;28;20225;-63
2023/07/04 13:46:53;;;;;;;5.03;4.13;;;;;;;;;;6185307;28;20188;-62
2023/07/04 13:49:54;;;;;;;6.23;4.17;;;;;;;;;;6191719;28;20188;-63
2023/07/04 13:52:55;;;;;;;7.17;4.20;;;;;;;;;;6176000;28;20207;-62
2023/07/04 13:55:59;;;;;;;4.93;3.90;;;;;;;;;;6177077;28;20262;-63
2023/07/04 13:59:00;;;;;;;4.30;3.57;;;;;;;;;;6187572;28;20195;-62
2023/07/04 14:02:01;;;;;;;5.70;4.00;;;;;;;;;;6171776;28;20196;-62
2023/07/04 14:05:03;;;;;;;4.70;3.80;;;;;;;;;;6184739;28;20191;-62
2023/07/04 14:08:04;;;;;;;4.70;3.53;;;;;;;;;;6196785;28;20199;-63
2023/07/04 14:11:10;;;;;;;4.27;3.87;;;;;;;;;;6195401;28;20287;-63
2023/07/04 14:14:11;;;;;;;4.63;3.63;;;;;;;;;;6187703;28;20271;-64
2023/07/04 14:17:12;;;;;;;5.40;3.93;;;;;;;;;;6183150;28;20279;-63
2023/07/04 14:20:13;;;;;;;6.50;3.50;;;;;;;;;;6183304;28;20258;-63
2023/07/04 14:23:14;;;;;;;5.53;3.67;;;;;;;;;;6177443;28;20247;-64
2023/07/04 14:26:17;;;;;;;5.47;4.13;;;;;;;;;;6188298;28;20210;-64
2023/07/04 14:29:18;;;;;;;6.50;4.30;;;;;;;;;;6198073;28;20281;-64
2023/07/04 14:32:19;;;;;;;4.47;3.40;;;;;;;;;;6186562;28;20222;-63
2023/07/04 14:35:20;;;;;;;4.60;3.53;;;;;;;;;;6177864;28;20207;-63
2023/07/04 14:38:21;;;;;;;4.77;3.63;;;;;;;;;;6181606;28;20216;-62
2023/07/04 14:41:23;;;;;;;4.97;4.10;;;;;;;;;;6171998;28;20211;-62
2023/07/04 14:44:24;;;;;;;3.57;3.23;;;;;;;;;;6186752;28;20201;-62
2023/07/04 14:47:25;;;;;;;4.10;3.60;;;;;;;;;;6187275;28;20195;-62
2023/07/04 14:50:26;;;;;;;5.90;3.83;;;;;;;;;;6192058;28;20199;-64
2023/07/04 14:53:27;;;;;;;5.17;4.30;;;;;;;;;;6181336;28;20223;-64
2023/07/04 14:56:28;;;;;;;3.93;3.53;;;;;;;;;;6196320;28;20220;-63
2023/07/04 14:59:30;;;;;;;4.23;3.83;;;;;;;;;;6182676;28;20220;-63
2023/07/04 15:02:32;;;;;;;3.73;3.43;;;;;;;;;;6187013;28;20283;-64
2023/07/04 15:05:33;;;;;;;4.60;4.20;;;;;;;;;;6177931;28;20194;-63
2023/07/04 15:08:34;;;;;;;5.83;4.00;;;;;;;;;;6167095;28;20205;-64
2023/07/04 15:11:36;;;;;;;4.63;3.37;;;;;;;;;;6171209;28;20227;-63
2023/07/04 15:14:38;;;;;;;4.87;4.00;;;;;;;;;;6181420;28;20235;-63
2023/07/04 15:17:39;;;;;;;5.67;3.80;;;;;;;;;;6185423;28;20216;-63
2023/07/04 15:20:40;;;;;;;5.47;4.03;;;;;;;;;;6164772;28;20188;-64
2023/07/04 15:23:41;;;;;;;5.33;3.57;;;;;;;;;;6179157;28;20217;-63
2023/07/04 15:26:42;;;;;;;5.27;4.30;;;;;;;;;;6180227;28;20234;-62
2023/07/04 15:29:43;;;;;;;6.03;4.13;;;;;;;;;;6169576;28;20199;-63
2023/07/04 15:32:45;;;;;;;4.20;3.67;;;;;;;;;;6186258;28;20264;-63
2023/07/04 15:35:47;;;;;;;3.90;3.10;;;;;;;;;;6167235;28;20200;-63
2023/07/04 15:38:48;;;;;;;6.47;3.50;;;;;;;;;;6183614;28;20185;-63
2023/07/04 15:41:49;;;;;;;7.57;3.90;;;;;;;;;;6172176;28;20187;-63
2023/07/04 15:44:50;;;;;;;3.97;3.40;;;;;;;;;;6191883;28;20196;-64
2023/07/04 15:47:51;;;;;;;3.80;3.43;;;;;;;;;;6191821;28;20196;-64
2023/07/04 15:50:55;;;;;;;3.97;3.50;;;;;;;;;;6184275;28;20206;-63
2023/07/04 15:53:56;;;;;;;7.90;4.23;;;;;;;;;;6188501;28;20188;-66
2023/07/04 15:56:57;;;;;;;4.57;4.00;;;;;;;;;;6181490;28;20234;-65
2023/07/04 15:59:59;;;;;;;4.27;3.83;;;;;;;;;;6195519;28;20188;-65
2023/07/04 16:03:00;;;;;;;4.40;4.00;;;;;;;;;;6195063;28;20199;-65
2023/07/04 16:06:03;;;;;;;4.87;3.77;;;;;;;;;;6181212;28;20236;-64
2023/07/04 16:09:05;;;;;;;4.50;3.73;;;;;;;;;;6199421;28;20191;-65
2023/07/04 16:12:07;;;;;;;4.33;3.93;;;;;;;;;;6198458;28;20286;-64
2023/07/04 16:15:08;;;;;;;3.53;3.23;;;;;;;;;;6187535;28;20267;-66
2023/07/04 16:18:11;;;;;;;4.30;3.90;;;;;;;;;;6187544;28;20270;-65
2023/07/04 16:21:12;;;;;;;4.80;3.80;;;;;;;;;;6184110;28;20219;-66
2023/07/04 16:24:13;;;;;;;5.10;3.93;;;;;;;;;;6195481;28;20197;-65
2023/07/04 16:27:14;;;;;;;4.40;4.00;;;;;;;;;;6187169;28;20195;-64
2023/07/04 16:30:16;;;;;;;5.00;3.87;;;;;;;;;;6186173;28;20219;-65
2023/07/04 16:33:17;;;;;;;5.43;4.00;;;;;;;;;;6173397;28;20278;-63
2023/07/04 16:36:18;;;;;;;5.87;3.90;;;;;;;;;;6181837;28;20356;-63
2023/07/04 16:39:19;;;;;;;3.97;3.37;;;;;;;;;;6174556;28;20230;-63
2023/07/04 16:42:21;;;;;;;4.07;3.57;;;;;;;;;;6191772;28;20197;-64
2023/07/04 16:45:22;;;;;;;11.73;4.33;;;;;;;;;;6185019;28;20283;-63
2023/07/04 16:48:23;;;;;;;6.33;3.60;;;;;;;;;;6193275;28;20205;-63
2023/07/04 16:51:24;;;;;;;5.43;3.80;;;;;;;;;;6175564;28;20198;-63
2023/07/04 16:54:25;;;;;;;4.77;3.97;;;;;;;;;;6172056;28;20203;-63
2023/07/04 16:57:26;;;;;;;6.13;3.97;;;;;;;;;;6176388;28;20211;-63
2023/07/04 17:00:27;;;;;;;4.80;4.03;;;;;;;;;;6199509;28;20194;-63
2023/07/04 17:03:29;;;;;;;4.40;4.00;;;;;;;;;;6176549;28;20199;-63
2023/07/04 17:06:30;;;;;;;3.83;3.40;;;;;;;;;;6166652;28;20199;-64
2023/07/04 17:09:31;;;;;;;4.10;3.63;;;;;;;;;;6173610;28;20201;-63
2023/07/04 17:12:32;;;;;;;5.57;3.80;;;;;;;;;;6194716;28;20196;-63
2023/07/04 17:15:34;;;;;;;5.83;3.80;;;;;;;;;;6168457;28;20600;-63
2023/07/04 17:18:36;;;;;;;5.20;3.70;;;;;;;;;;6181834;28;20223;-64
2023/07/04 17:21:37;;;;;;;4.57;3.90;;;;;;;;;;6184747;28;20188;-63
2023/07/04 17:24:38;;;;;;;4.93;4.10;;;;;;;;;;6166747;28;20220;-64
2023/07/04 17:27:39;;;;;;;8.50;4.43;;;;;;;;;;6175515;28;20232;-65
2023/07/04 17:30:40;;;;;;;4.87;4.23;;;;;;;;;;6191740;28;20246;-66
2023/07/04 17:33:42;;;;;;;4.33;3.93;;;;;;;;;;6197277;28;20282;-63
2023/07/04 17:36:43;;;;;;;6.83;4.20;;;;;;;;;;6181108;28;20231;-67
2023/07/04 17:39:44;;;;;;;6.10;4.37;;;;;;;;;;6190456;28;20184;-63
2023/07/04 17:42:45;;;;;;;4.30;3.90;;;;;;;;;;6195712;28;20187;-66
2023/07/04 17:45:49;;;;;;;5.40;4.00;;;;;;;;;;6180593;28;20200;-64
2023/07/04 17:48:50;;;;;;;6.13;4.30;;;;;;;;;;6181124;28;20216;-63
2023/07/04 17:51:52;;;;;;;5.83;3.83;;;;;;;;;;6159870;28;20231;-66
2023/07/04 17:54:53;;;;;;;5.07;4.03;;;;;;;;;;6182878;28;20219;-66
2023/07/04 17:57:54;;;;;;;6.27;4.37;;;;;;;;;;6181126;28;20243;-66
2023/07/04 18:00:59;;;;;;;4.93;4.00;;;;;;;;;;6162296;28;20227;-68
2023/07/04 18:04:01;;;;;;;4.37;3.93;;;;;;;;;;6190829;28;20223;-70
2023/07/04 18:07:02;;;;;;;5.07;3.87;;;;;;;;;;6187330;28;20196;-64
2023/07/04 18:10:05;;;;;;;5.23;4.17;;;;;;;;;;6170827;28;20208;-67
2023/07/04 18:13:06;;;;;;;4.97;4.00;;;;;;;;;;6188288;28;20193;-66